Terminal Aerodrome Forecast
Issued by NWS

Home | Current Version | Previous Version | Text Only | Print | Product List | Glossary Off
Versions: 1 2 3 4 5 6 7 8 9 10 11 12 13 14 15 16 17 18 19 20 21 22 23

084
FTUS43 KBIS 241135
TAFJMS
TAF
KJMS 241135Z 2412/2512 01009G17KT P6SM -RA BKN008 OVC013
     FM241400 36011KT 5SM -SHRA BR OVC008
     FM241800 35011KT 6SM -SHRA BR OVC008
     FM250000 35011KT P6SM VCSH OVC008
     FM250900 34008KT P6SM OVC005=

USA.gov is the U.S. government's official web portal to all federal, state and local government web resources and services.